Time;durP1;ratioP1;P1;durP2;ratioP2;P2;SDS_P1;SDS_P2;PMS_P1;PMS_P2;Temp;Humidity;BMP_temperature;BMP_pressure;BME280_temperature;BME280_humidity;BME280_pressure;Samples;Min_cycle;Max_cycle;Signal;HPM_P1;HPM_P2
2023/01/25 00:00:49;;;;;;;20.55;10.82;;;;;;;;;;5051026;28;20392;-72
2023/01/25 00:03:15;;;;;;;18.05;9.05;;;;;;;;;;5050853;28;20032;-71
2023/01/25 00:05:41;;;;;;;20.95;9.68;;;;;;;;;;5050804;28;20025;-75
2023/01/25 00:08:07;;;;;;;22.02;10.38;;;;;;;;;;5049269;28;20038;-72
2023/01/25 00:10:33;;;;;;;21.10;9.18;;;;;;;;;;5050761;28;20082;-79
2023/01/25 00:12:59;;;;;;;18.48;8.40;;;;;;;;;;5050930;28;20495;-76
2023/01/25 00:15:25;;;;;;;18.73;9.02;;;;;;;;;;5050752;28;20028;-78
2023/01/25 00:17:51;;;;;;;19.85;8.63;;;;;;;;;;5051025;28;20108;-71
2023/01/25 00:20:17;;;;;;;19.67;9.13;;;;;;;;;;5050678;28;20104;-81
2023/01/25 00:22:43;;;;;;;19.05;8.95;;;;;;;;;;5050605;28;20029;-81
2023/01/25 00:25:09;;;;;;;19.33;8.80;;;;;;;;;;5050579;28;20044;-72
2023/01/25 00:27:35;;;;;;;19.75;8.98;;;;;;;;;;5050804;28;20065;-80
2023/01/25 00:30:02;;;;;;;17.23;8.77;;;;;;;;;;5050664;28;20110;-80
2023/01/25 00:32:32;;;;;;;18.75;9.55;;;;;;;;;;5050513;28;20040;-71
2023/01/25 00:34:58;;;;;;;20.15;9.50;;;;;;;;;;5053267;28;20388;-72
2023/01/25 00:37:38;;;;;;;21.05;9.52;;;;;;;;;;5054500;28;20025;-74
2023/01/25 00:40:05;;;;;;;20.02;9.73;;;;;;;;;;5054102;28;20025;-77
2023/01/25 00:42:31;;;;;;;21.75;10.15;;;;;;;;;;5054416;28;20159;-73
2023/01/25 00:44:57;;;;;;;19.63;9.20;;;;;;;;;;5054616;28;20036;-75
2023/01/25 00:47:23;;;;;;;20.27;9.93;;;;;;;;;;5054459;28;20502;-72
2023/01/25 00:49:49;;;;;;;17.30;8.65;;;;;;;;;;5054385;28;20033;-74
2023/01/25 00:52:15;;;;;;;18.10;8.95;;;;;;;;;;5053642;28;20063;-77
2023/01/25 00:54:41;;;;;;;15.82;8.68;;;;;;;;;;5053892;28;20029;-73
2023/01/25 00:57:08;;;;;;;21.15;9.45;;;;;;;;;;5053885;28;20576;-71
2023/01/25 00:59:34;;;;;;;17.52;8.57;;;;;;;;;;5054101;28;20048;-72
2023/01/25 01:02:01;;;;;;;17.88;8.10;;;;;;;;;;5053617;28;20146;-71
2023/01/25 01:04:27;;;;;;;19.02;8.63;;;;;;;;;;5053793;28;20429;-71
2023/01/25 01:06:53;;;;;;;16.05;7.80;;;;;;;;;;5053838;28;20366;-71
2023/01/25 01:09:20;;;;;;;19.65;9.07;;;;;;;;;;5054234;28;20116;-71
2023/01/25 01:11:46;;;;;;;17.13;8.57;;;;;;;;;;5053579;28;20044;-71
2023/01/25 01:14:12;;;;;;;15.88;7.75;;;;;;;;;;5053809;28;20029;-72
2023/01/25 01:16:39;;;;;;;16.95;8.10;;;;;;;;;;5053656;28;20036;-72
2023/01/25 01:19:05;;;;;;;16.77;8.23;;;;;;;;;;5053833;28;20392;-72
2023/01/25 01:21:31;;;;;;;18.15;8.80;;;;;;;;;;5053915;28;20396;-72
2023/01/25 01:23:57;;;;;;;19.13;8.45;;;;;;;;;;5053518;28;20519;-72
2023/01/25 01:26:23;;;;;;;16.45;7.85;;;;;;;;;;5053478;28;20107;-72
2023/01/25 01:28:49;;;;;;;18.88;8.70;;;;;;;;;;5053646;28;20033;-71
2023/01/25 01:31:17;;;;;;;17.88;8.20;;;;;;;;;;5053382;28;20124;-72
2023/01/25 01:33:43;;;;;;;17.60;8.55;;;;;;;;;;5053163;28;20047;-75
2023/01/25 01:36:09;;;;;;;18.63;8.43;;;;;;;;;;5053420;28;20107;-73
2023/01/25 01:38:35;;;;;;;16.50;8.27;;;;;;;;;;5053408;28;20029;-71
2023/01/25 01:41:01;;;;;;;19.30;8.98;;;;;;;;;;5053633;28;20023;-71
2023/01/25 01:43:29;;;;;;;19.65;9.18;;;;;;;;;;5053437;28;20032;-72
2023/01/25 01:45:57;;;;;;;17.60;8.75;;;;;;;;;;5052915;28;20092;-78
2023/01/25 01:48:32;;;;;;;17.02;8.52;;;;;;;;;;5053073;28;20034;-72
2023/01/25 01:51:00;;;;;;;17.48;8.57;;;;;;;;;;5053060;28;20033;-71
2023/01/25 01:53:27;;;;;;;14.48;7.65;;;;;;;;;;5052779;28;20063;-74
2023/01/25 01:55:55;;;;;;;17.67;9.05;;;;;;;;;;5052983;28;20024;-71
2023/01/25 01:58:22;;;;;;;22.50;8.07;;;;;;;;;;5052921;28;20025;-72
2023/01/25 02:00:48;;;;;;;17.80;8.13;;;;;;;;;;5052902;28;20026;-73
2023/01/25 02:03:15;;;;;;;16.95;8.27;;;;;;;;;;5052909;28;20025;-73
2023/01/25 02:05:51;;;;;;;17.33;8.43;;;;;;;;;;5051696;28;20170;-78
2023/01/25 02:08:18;;;;;;;17.10;8.02;;;;;;;;;;5052530;28;20079;-80
2023/01/25 02:10:45;;;;;;;16.02;8.35;;;;;;;;;;5052913;28;20455;-77
2023/01/25 02:13:11;;;;;;;16.35;7.88;;;;;;;;;;5052650;28;20037;-71
2023/01/25 02:15:42;;;;;;;17.13;7.72;;;;;;;;;;5052655;28;20353;-76
2023/01/25 02:18:10;;;;;;;15.07;7.30;;;;;;;;;;5052388;28;20431;-78
2023/01/25 02:20:38;;;;;;;16.10;7.63;;;;;;;;;;5052689;28;20473;-81
2023/01/25 02:23:11;;;;;;;15.60;8.23;;;;;;;;;;5052253;28;20040;-71
2023/01/25 02:25:37;;;;;;;16.10;8.27;;;;;;;;;;5052334;28;20033;-72
2023/01/25 02:28:06;;;;;;;16.75;7.88;;;;;;;;;;5052243;28;20032;-79
2023/01/25 02:30:33;;;;;;;14.13;7.90;;;;;;;;;;5052126;28;20021;-74
2023/01/25 02:32:59;;;;;;;16.63;8.27;;;;;;;;;;5052240;28;20373;-79
2023/01/25 02:35:37;;;;;;;15.50;7.28;;;;;;;;;;5051741;28;20362;-76
2023/01/25 02:38:04;;;;;;;18.35;8.18;;;;;;;;;;5052317;28;20029;-75
2023/01/25 02:40:30;;;;;;;22.15;8.82;;;;;;;;;;5051969;28;20029;-78
2023/01/25 02:42:57;;;;;;;16.30;7.63;;;;;;;;;;5051944;28;20506;-72
2023/01/25 02:45:25;;;;;;;16.70;7.97;;;;;;;;;;5052116;28;20025;-79
2023/01/25 02:47:51;;;;;;;15.30;7.45;;;;;;;;;;5051827;28;20799;-72
2023/01/25 02:50:17;;;;;;;15.55;7.60;;;;;;;;;;5051858;28;20040;-79
2023/01/25 02:52:43;;;;;;;14.50;7.75;;;;;;;;;;5051575;28;20102;-78
2023/01/25 02:55:09;;;;;;;17.75;8.07;;;;;;;;;;5051752;28;20074;-80
2023/01/25 02:57:35;;;;;;;14.85;7.55;;;;;;;;;;5051244;28;20512;-75
2023/01/25 03:00:01;;;;;;;14.60;7.93;;;;;;;;;;5051652;28;20029;-73
2023/01/25 03:02:28;;;;;;;15.00;7.45;;;;;;;;;;5053578;28;20111;-80
2023/01/25 03:04:54;;;;;;;14.73;7.47;;;;;;;;;;5052737;28;20104;-81
2023/01/25 03:07:20;;;;;;;14.13;6.75;;;;;;;;;;5051667;28;20032;-80
2023/01/25 03:09:46;;;;;;;15.27;7.30;;;;;;;;;;5051632;28;20029;-78
2023/01/25 03:12:12;;;;;;;15.30;7.32;;;;;;;;;;5051282;28;20048;-71
2023/01/25 03:14:38;;;;;;;13.35;6.57;;;;;;;;;;5051259;28;20024;-78
2023/01/25 03:17:04;;;;;;;13.40;6.65;;;;;;;;;;5051496;28;20044;-72
2023/01/25 03:19:30;;;;;;;14.10;7.18;;;;;;;;;;5051540;28;20090;-73
2023/01/25 03:21:57;;;;;;;15.10;7.15;;;;;;;;;;5051294;28;20037;-78
2023/01/25 03:24:23;;;;;;;14.82;7.28;;;;;;;;;;5051441;28;20021;-73
2023/01/25 03:29:34;;;;;;;13.65;6.63;;;;;;;;;;5050618;28;20036;-71
2023/01/25 03:32:00;;;;;;;19.35;7.32;;;;;;;;;;5051317;28;20037;-72
2023/01/25 03:34:26;;;;;;;12.98;6.82;;;;;;;;;;5050763;28;20032;-75
2023/01/25 03:36:52;;;;;;;14.73;7.32;;;;;;;;;;5049954;28;20107;-73
2023/01/25 03:39:18;;;;;;;17.52;7.72;;;;;;;;;;5050975;28;20096;-72
2023/01/25 03:41:44;;;;;;;16.38;7.65;;;;;;;;;;5051080;28;20025;-76
2023/01/25 03:44:10;;;;;;;14.70;7.75;;;;;;;;;;5051135;28;20059;-76
2023/01/25 03:46:37;;;;;;;15.20;7.57;;;;;;;;;;5051022;28;20100;-71
2023/01/25 03:49:03;;;;;;;15.82;8.20;;;;;;;;;;5051204;28;20028;-71
2023/01/25 03:51:29;;;;;;;16.77;7.93;;;;;;;;;;5050837;28;20049;-77
2023/01/25 03:53:55;;;;;;;15.65;7.60;;;;;;;;;;5050495;28;20021;-71
2023/01/25 03:56:21;;;;;;;16.85;7.90;;;;;;;;;;5050923;28;20029;-75
2023/01/25 03:58:47;;;;;;;13.77;6.97;;;;;;;;;;5051001;28;20025;-71
2023/01/25 04:01:13;;;;;;;15.88;7.97;;;;;;;;;;5050991;28;20487;-75
2023/01/25 04:03:39;;;;;;;14.95;7.38;;;;;;;;;;5051063;28;20032;-75
2023/01/25 04:06:06;;;;;;;14.95;7.65;;;;;;;;;;5050737;28;20100;-72
2023/01/25 04:08:32;;;;;;;13.52;6.60;;;;;;;;;;5053204;28;20031;-71
2023/01/25 04:11:02;;;;;;;13.90;7.43;;;;;;;;;;5054789;28;20025;-71
2023/01/25 04:13:28;;;;;;;15.80;7.70;;;;;;;;;;5054690;28;20033;-73
2023/01/25 04:15:54;;;;;;;12.63;7.13;;;;;;;;;;5055218;28;20228;-71
2023/01/25 04:18:21;;;;;;;14.73;7.53;;;;;;;;;;5054826;28;20029;-78
2023/01/25 04:20:52;;;;;;;17.35;7.28;;;;;;;;;;5054741;28;20071;-70
2023/01/25 04:23:18;;;;;;;15.15;7.13;;;;;;;;;;5053974;28;20078;-76
2023/01/25 04:25:52;;;;;;;14.15;7.45;;;;;;;;;;5054292;28;20160;-71
2023/01/25 04:28:18;;;;;;;17.67;7.75;;;;;;;;;;5054680;28;20029;-71
2023/01/25 04:30:44;;;;;;;14.98;7.40;;;;;;;;;;5054869;28;20097;-71
2023/01/25 04:33:10;;;;;;;17.80;7.85;;;;;;;;;;5054536;28;20037;-78
2023/01/25 04:35:37;;;;;;;14.25;7.25;;;;;;;;;;5054609;28;20021;-71
2023/01/25 04:38:03;;;;;;;16.58;8.27;;;;;;;;;;5054560;28;20123;-73
2023/01/25 04:40:29;;;;;;;16.85;8.27;;;;;;;;;;5054092;28;20144;-71
2023/01/25 04:42:55;;;;;;;16.48;7.72;;;;;;;;;;5053927;28;20038;-74
2023/01/25 04:45:22;;;;;;;15.85;7.82;;;;;;;;;;5054548;28;20103;-71
2023/01/25 04:47:48;;;;;;;16.05;7.32;;;;;;;;;;5054298;28;20144;-70
2023/01/25 04:50:14;;;;;;;15.20;7.50;;;;;;;;;;5054082;28;20483;-78
2023/01/25 04:52:40;;;;;;;15.48;7.47;;;;;;;;;;5053914;28;20136;-69
2023/01/25 04:55:07;;;;;;;15.35;7.30;;;;;;;;;;5053831;28;20056;-80
2023/01/25 04:57:33;;;;;;;13.43;7.72;;;;;;;;;;5054116;28;20114;-78
2023/01/25 04:59:59;;;;;;;14.98;7.20;;;;;;;;;;5053954;28;20036;-71
2023/01/25 05:02:26;;;;;;;16.30;8.25;;;;;;;;;;5054299;28;20108;-78
2023/01/25 05:04:52;;;;;;;15.70;7.97;;;;;;;;;;5053885;28;20044;-70
2023/01/25 05:07:18;;;;;;;15.57;8.00;;;;;;;;;;5053756;28;20040;-71
2023/01/25 05:09:44;;;;;;;15.77;7.68;;;;;;;;;;5053953;28;20029;-70
2023/01/25 05:12:12;;;;;;;18.00;8.25;;;;;;;;;;5053758;28;20072;-70
2023/01/25 05:14:39;;;;;;;19.08;9.00;;;;;;;;;;5053874;28;20021;-75
2023/01/25 05:17:05;;;;;;;17.98;9.05;;;;;;;;;;5053756;28;20028;-71
2023/01/25 05:19:32;;;;;;;16.42;8.00;;;;;;;;;;5053054;28;20028;-71
2023/01/25 05:21:58;;;;;;;20.98;9.70;;;;;;;;;;5053637;28;20397;-78
2023/01/25 05:24:31;;;;;;;16.98;8.40;;;;;;;;;;5053533;28;20033;-70
2023/01/25 05:27:02;;;;;;;15.32;7.88;;;;;;;;;;5053347;28;20068;-79
2023/01/25 05:29:28;;;;;;;16.83;8.63;;;;;;;;;;5053966;28;20439;-74
2023/01/25 05:31:55;;;;;;;18.65;8.50;;;;;;;;;;5053405;28;20148;-71
2023/01/25 05:34:21;;;;;;;18.20;8.57;;;;;;;;;;5053585;28;20025;-70
2023/01/25 05:36:47;;;;;;;18.42;8.90;;;;;;;;;;5053406;28;20055;-78
2023/01/25 05:39:13;;;;;;;18.60;9.10;;;;;;;;;;5053038;28;20543;-71
2023/01/25 05:41:39;;;;;;;18.27;8.73;;;;;;;;;;5053192;28;20407;-74
2023/01/25 05:44:05;;;;;;;23.25;9.60;;;;;;;;;;5052595;28;20032;-76
2023/01/25 05:46:31;;;;;;;21.00;10.07;;;;;;;;;;5053020;28;20110;-75
2023/01/25 05:48:57;;;;;;;21.02;10.25;;;;;;;;;;5053545;28;20021;-71
2023/01/25 05:51:23;;;;;;;23.60;11.10;;;;;;;;;;5053137;28;20052;-70
2023/01/25 05:53:49;;;;;;;23.27;11.15;;;;;;;;;;5053208;28;20028;-77
2023/01/25 05:56:15;;;;;;;26.35;11.80;;;;;;;;;;5051504;28;20025;-78
2023/01/25 05:58:41;;;;;;;21.88;10.57;;;;;;;;;;5052958;28;20079;-77
2023/01/25 06:01:07;;;;;;;21.40;10.40;;;;;;;;;;5052942;28;20096;-77
2023/01/25 06:03:33;;;;;;;23.40;11.23;;;;;;;;;;5053054;28;20033;-78
2023/01/25 06:06:01;;;;;;;24.33;11.10;;;;;;;;;;5052840;28;20032;-70
2023/01/25 06:08:28;;;;;;;31.73;15.60;;;;;;;;;;5052859;28;20029;-75
2023/01/25 06:10:54;;;;;;;52.92;20.90;;;;;;;;;;5052360;28;20021;-70
2023/01/25 06:13:21;;;;;;;51.60;21.60;;;;;;;;;;5052720;28;20116;-78
2023/01/25 06:15:56;;;;;;;41.75;16.65;;;;;;;;;;5052484;28;20060;-68
2023/01/25 06:18:25;;;;;;;44.22;18.85;;;;;;;;;;5052560;28;20463;-72
2023/01/25 06:20:52;;;;;;;56.10;23.38;;;;;;;;;;5052644;28;20536;-77
2023/01/25 06:23:18;;;;;;;69.53;28.13;;;;;;;;;;5052460;28;20024;-78
2023/01/25 06:25:44;;;;;;;56.95;23.45;;;;;;;;;;5052118;28;20037;-72
2023/01/25 06:28:10;;;;;;;61.15;24.17;;;;;;;;;;5052442;28;20025;-72
2023/01/25 06:30:36;;;;;;;72.07;28.48;;;;;;;;;;5052054;28;20025;-77
2023/01/25 06:33:02;;;;;;;69.93;27.13;;;;;;;;;;5051825;28;20116;-73
2023/01/25 06:35:28;;;;;;;68.60;27.50;;;;;;;;;;5052089;28;20029;-77
2023/01/25 06:37:55;;;;;;;53.55;21.83;;;;;;;;;;5052252;28;20033;-76
2023/01/25 06:40:21;;;;;;;28.23;13.50;;;;;;;;;;5051941;28;20135;-70
2023/01/25 06:42:47;;;;;;;27.60;13.63;;;;;;;;;;5052208;28;20098;-78
2023/01/25 06:45:13;;;;;;;24.95;12.15;;;;;;;;;;5046892;28;20028;-79
2023/01/25 06:47:39;;;;;;;52.80;21.60;;;;;;;;;;5042907;28;20547;-70
2023/01/25 06:50:06;;;;;;;69.55;27.15;;;;;;;;;;5051698;28;20036;-74
2023/01/25 06:52:35;;;;;;;91.55;35.28;;;;;;;;;;5051486;28;20504;-69
2023/01/25 06:55:02;;;;;;;91.60;35.63;;;;;;;;;;5051938;28;20031;-69
2023/01/25 06:57:28;;;;;;;87.13;35.40;;;;;;;;;;5051679;28;20033;-72
2023/01/25 06:59:54;;;;;;;86.70;33.58;;;;;;;;;;5045093;28;20385;-72
2023/01/25 07:02:21;;;;;;;58.40;23.35;;;;;;;;;;5041018;28;20452;-72
2023/01/25 07:04:47;;;;;;;47.17;20.15;;;;;;;;;;5041226;28;20022;-72
2023/01/25 07:07:13;;;;;;;62.05;23.42;;;;;;;;;;5039424;28;20457;-75
2023/01/25 07:09:39;;;;;;;61.63;22.83;;;;;;;;;;5040128;28;20560;-71
2023/01/25 07:12:05;;;;;;;48.70;20.13;;;;;;;;;;5038664;28;20112;-68
2023/01/25 07:14:31;;;;;;;55.70;22.98;;;;;;;;;;5037695;28;20112;-68
2023/01/25 07:16:57;;;;;;;68.03;24.77;;;;;;;;;;5040170;28;20500;-75
2023/01/25 07:19:23;;;;;;;74.80;29.33;;;;;;;;;;5038660;28;20023;-77
2023/01/25 07:21:50;;;;;;;55.30;23.48;;;;;;;;;;5037780;28;20112;-83
2023/01/25 07:24:17;;;;;;;43.70;18.40;;;;;;;;;;5038899;28;20022;-71
2023/01/25 07:26:43;;;;;;;71.18;27.40;;;;;;;;;;5040447;28;20528;-71
2023/01/25 07:29:14;;;;;;;55.35;22.20;;;;;;;;;;5040798;28;20022;-79
2023/01/25 07:31:42;;;;;;;55.03;22.30;;;;;;;;;;5039503;28;20477;-70
2023/01/25 07:34:10;;;;;;;78.82;27.35;;;;;;;;;;5039805;28;20040;-71
2023/01/25 07:36:36;;;;;;;41.33;16.90;;;;;;;;;;5040762;28;20017;-78
2023/01/25 07:39:02;;;;;;;39.15;16.38;;;;;;;;;;5039434;28;20540;-78
2023/01/25 07:41:29;;;;;;;50.72;19.23;;;;;;;;;;5036966;28;20132;-73
2023/01/25 07:43:55;;;;;;;53.95;21.95;;;;;;;;;;5033926;28;20031;-79
2023/01/25 07:46:22;;;;;;;36.40;15.02;;;;;;;;;;5034459;28;20025;-70
2023/01/25 07:48:49;;;;;;;53.95;20.30;;;;;;;;;;5033695;28;20028;-71
2023/01/25 07:51:22;;;;;;;47.25;17.92;;;;;;;;;;5033790;28;20039;-70
2023/01/25 07:53:50;;;;;;;58.72;21.98;;;;;;;;;;5033474;28;20053;-80
2023/01/25 07:56:18;;;;;;;61.90;24.38;;;;;;;;;;5044005;28;20032;-73
2023/01/25 07:58:44;;;;;;;51.63;20.38;;;;;;;;;;5044519;28;20099;-82
2023/01/25 08:01:11;;;;;;;33.38;13.88;;;;;;;;;;5029921;28;20053;-78
2023/01/25 08:03:38;;;;;;;34.85;14.73;;;;;;;;;;5037175;28;20033;-69
2023/01/25 08:06:04;;;;;;;25.70;10.40;;;;;;;;;;5040493;28;20041;-69
2023/01/25 08:08:33;;;;;;;25.60;11.65;;;;;;;;;;5040323;28;20489;-76
2023/01/25 08:11:00;;;;;;;45.78;19.90;;;;;;;;;;5040554;28;20071;-67
2023/01/25 08:13:26;;;;;;;36.40;15.40;;;;;;;;;;5038861;28;20545;-74
2023/01/25 08:15:55;;;;;;;38.80;16.23;;;;;;;;;;5039938;28;20768;-70
2023/01/25 08:18:21;;;;;;;43.47;16.85;;;;;;;;;;5039534;28;20025;-68
2023/01/25 08:20:48;;;;;;;51.10;19.98;;;;;;;;;;5047619;28;20082;-78
2023/01/25 08:23:14;;;;;;;31.08;12.23;;;;;;;;;;5050277;28;20090;-80
2023/01/25 08:25:40;;;;;;;22.13;11.00;;;;;;;;;;5038971;28;20106;-66
2023/01/25 08:28:06;;;;;;;32.75;14.68;;;;;;;;;;5046990;28;20070;-80
2023/01/25 08:30:33;;;;;;;46.20;17.83;;;;;;;;;;5043606;28;20085;-74
2023/01/25 08:32:59;;;;;;;65.35;23.85;;;;;;;;;;5041155;28;20061;-74
2023/01/25 08:35:25;;;;;;;45.00;17.08;;;;;;;;;;5044051;28;20027;-74
2023/01/25 08:38:00;;;;;;;37.25;15.93;;;;;;;;;;5044223;28;20063;-73
2023/01/25 08:40:26;;;;;;;33.92;14.43;;;;;;;;;;5042666;28;20028;-74
2023/01/25 08:42:52;;;;;;;34.38;14.95;;;;;;;;;;5039534;28;20087;-75
2023/01/25 08:45:19;;;;;;;33.47;13.88;;;;;;;;;;5045157;28;20060;-73
2023/01/25 08:47:45;;;;;;;26.38;11.48;;;;;;;;;;5041066;28;20079;-74
2023/01/25 08:50:11;;;;;;;17.35;8.70;;;;;;;;;;5041320;28;20017;-73
2023/01/25 08:52:37;;;;;;;23.90;9.63;;;;;;;;;;5042010;28;20053;-74
2023/01/25 08:55:03;;;;;;;17.77;8.70;;;;;;;;;;5040391;28;20448;-75
2023/01/25 08:57:48;;;;;;;20.08;9.50;;;;;;;;;;5042901;28;20029;-74
2023/01/25 09:00:14;;;;;;;17.65;8.90;;;;;;;;;;5043728;28;20024;-76
2023/01/25 09:02:40;;;;;;;17.85;8.38;;;;;;;;;;5043653;28;20075;-78
2023/01/25 09:05:07;;;;;;;17.42;8.10;;;;;;;;;;5046858;28;20022;-81
2023/01/25 09:07:37;;;;;;;19.35;8.50;;;;;;;;;;5041681;28;20017;-77
2023/01/25 09:10:12;;;;;;;17.20;8.38;;;;;;;;;;5041329;28;20100;-74
2023/01/25 09:12:38;;;;;;;19.75;10.05;;;;;;;;;;5042039;28;20492;-74
2023/01/25 09:15:14;;;;;;;18.88;9.02;;;;;;;;;;5040533;28;20021;-72
2023/01/25 09:17:40;;;;;;;19.80;9.15;;;;;;;;;;5040174;28;20040;-73
2023/01/25 09:20:07;;;;;;;22.52;9.93;;;;;;;;;;5044890;28;20074;-76
2023/01/25 09:22:33;;;;;;;18.50;8.70;;;;;;;;;;5049312;28;20464;-72
2023/01/25 09:24:59;;;;;;;17.63;8.50;;;;;;;;;;5039800;28;20108;-75
2023/01/25 09:27:25;;;;;;;21.23;9.85;;;;;;;;;;5037676;28;20045;-72
2023/01/25 09:29:54;;;;;;;24.50;10.93;;;;;;;;;;5040236;28;20021;-77
2023/01/25 09:32:20;;;;;;;17.00;8.48;;;;;;;;;;5041904;28;20055;-75
2023/01/25 09:34:46;;;;;;;18.33;8.95;;;;;;;;;;5046504;28;20017;-75
2023/01/25 09:37:12;;;;;;;18.25;8.45;;;;;;;;;;5038735;28;20033;-74
2023/01/25 09:39:38;;;;;;;22.92;9.07;;;;;;;;;;5042404;28;20048;-74
2023/01/25 09:42:10;;;;;;;20.23;9.70;;;;;;;;;;5042195;28;20487;-74
2023/01/25 09:44:36;;;;;;;;;;;;;;;;;;5043687;28;20059;-74
2023/01/25 09:47:05;;;;;;;24.92;12.10;;;;;;;;;;5040992;28;19957;-73
2023/01/25 09:49:34;;;;;;;28.90;13.30;;;;;;;;;;5043280;28;20063;-75
2023/01/25 09:52:19;;;;;;;24.20;11.32;;;;;;;;;;5051876;28;20118;-75
2023/01/25 09:54:46;;;;;;;22.88;11.55;;;;;;;;;;5032317;28;20099;-73
2023/01/25 09:57:27;;;;;;;21.98;10.77;;;;;;;;;;5034153;28;20025;-75
2023/01/25 09:59:53;;;;;;;22.02;9.98;;;;;;;;;;5030729;28;20109;-75
2023/01/25 10:02:41;;;;;;;20.13;9.68;;;;;;;;;;5032630;28;20523;-75
2023/01/25 10:05:14;;;;;;;23.73;10.88;;;;;;;;;;5035379;28;20055;-75
2023/01/25 10:07:47;;;;;;;25.25;11.57;;;;;;;;;;5031751;28;20107;-76
2023/01/25 10:10:19;;;;;;;22.00;9.48;;;;;;;;;;5033642;28;20126;-75
2023/01/25 10:12:45;;;;;;;19.35;8.77;;;;;;;;;;5053525;28;20045;-69
2023/01/25 10:15:22;;;;;;;20.23;10.07;;;;;;;;;;5056187;28;20416;-65
2023/01/25 10:18:14;;;;;;;18.85;9.07;;;;;;;;;;5052999;28;20029;-65
2023/01/25 10:20:53;;;;;;;19.55;9.32;;;;;;;;;;5046595;28;20044;-65
2023/01/25 10:23:25;;;;;;;17.17;9.13;;;;;;;;;;5049477;28;20134;-65
2023/01/25 10:25:58;;;;;;;18.52;8.85;;;;;;;;;;5045465;28;20524;-65
2023/01/25 10:28:34;;;;;;;22.75;8.85;;;;;;;;;;5044514;28;20021;-66
2023/01/25 10:31:05;;;;;;;21.45;9.48;;;;;;;;;;5043507;28;20025;-66
2023/01/25 10:33:32;;;;;;;19.67;8.27;;;;;;;;;;5042427;28;20033;-63
2023/01/25 10:36:01;;;;;;;16.75;7.88;;;;;;;;;;5041141;28;20605;-64
2023/01/25 10:38:47;;;;;;;17.33;7.95;;;;;;;;;;5044155;28;20071;-65
2023/01/25 10:41:13;;;;;;;19.20;9.13;;;;;;;;;;5051494;28;20037;-63
2023/01/25 10:43:40;;;;;;;19.30;9.45;;;;;;;;;;5037149;28;20029;-64
2023/01/25 10:46:23;;;;;;;17.83;8.50;;;;;;;;;;5031537;28;20428;-66
2023/01/25 10:48:49;;;;;;;15.02;7.45;;;;;;;;;;5031683;28;20037;-65
2023/01/25 10:51:41;;;;;;;13.80;6.82;;;;;;;;;;5030938;28;20053;-66
2023/01/25 10:54:13;;;;;;;16.02;7.07;;;;;;;;;;5031827;28;20149;-70
2023/01/25 10:56:39;;;;;;;14.00;6.95;;;;;;;;;;5038158;28;20029;-70
2023/01/25 10:59:08;;;;;;;14.63;6.82;;;;;;;;;;5050971;28;20074;-71
2023/01/25 11:01:35;;;;;;;16.65;7.97;;;;;;;;;;5051131;28;20064;-72
2023/01/25 11:04:02;;;;;;;17.35;7.43;;;;;;;;;;5050417;28;20028;-76
2023/01/25 11:06:38;;;;;;;24.70;10.13;;;;;;;;;;5051428;28;20032;-74
2023/01/25 11:09:22;;;;;;;47.72;18.30;;;;;;;;;;5050977;28;20105;-77
2023/01/25 11:11:55;;;;;;;23.08;10.25;;;;;;;;;;5051269;28;20033;-69
2023/01/25 11:14:24;;;;;;;13.40;6.35;;;;;;;;;;5051454;28;20033;-70
2023/01/25 11:16:50;;;;;;;12.50;5.72;;;;;;;;;;5048115;28;20379;-72
2023/01/25 11:19:28;;;;;;;11.13;5.95;;;;;;;;;;5040665;28;20429;-67
2023/01/25 11:21:56;;;;;;;12.60;5.82;;;;;;;;;;5036706;28;20025;-73
2023/01/25 11:24:34;;;;;;;12.00;5.13;;;;;;;;;;5046013;28;20025;-73
2023/01/25 11:27:14;;;;;;;11.60;5.82;;;;;;;;;;5041098;28;20052;-72
2023/01/25 11:29:40;;;;;;;12.13;5.70;;;;;;;;;;5043295;28;20029;-75
2023/01/25 11:32:15;;;;;;;11.25;5.55;;;;;;;;;;5050937;28;20041;-70
2023/01/25 11:34:41;;;;;;;10.68;6.15;;;;;;;;;;5040067;28;20464;-74
2023/01/25 11:37:07;;;;;;;16.13;7.38;;;;;;;;;;5039710;28;20029;-76
2023/01/25 11:39:39;;;;;;;12.90;6.70;;;;;;;;;;5039096;28;20392;-69
2023/01/25 11:42:05;;;;;;;;;;;;;;;;;;5037005;28;20029;-69
2023/01/25 11:44:34;;;;;;;18.75;7.90;;;;;;;;;;5042966;28;19920;-70
2023/01/25 11:47:30;;;;;;;18.42;7.28;;;;;;;;;;5066441;28;20081;-82
2023/01/25 11:50:28;;;;;;;14.48;6.68;;;;;;;;;;5040279;28;20057;-86
2023/01/25 11:53:00;;;;;;;14.43;5.82;;;;;;;;;;4953950;28;20069;-75
2023/01/25 11:55:39;;;;;;;15.02;7.00;;;;;;;;;;4954286;28;20390;-76
2023/01/25 11:58:18;;;;;;;18.13;8.35;;;;;;;;;;4958971;28;20040;-76
2023/01/25 12:00:50;;;;;;;14.80;6.07;;;;;;;;;;4947948;28;20043;-79
2023/01/25 12:03:49;;;;;;;12.25;6.57;;;;;;;;;;4950609;28;20031;-76
2023/01/25 12:06:18;;;;;;;12.68;6.18;;;;;;;;;;4944198;28;20102;-84
2023/01/25 12:08:47;;;;;;;12.43;6.00;;;;;;;;;;4928535;29;20063;-84
2023/01/25 12:11:21;;;;;;;11.95;6.60;;;;;;;;;;4907083;29;20097;-81
2023/01/25 12:13:48;;;;;;;;;;;;;;;;;;4940661;29;20051;-87
2023/01/25 12:16:19;;;;;;;13.23;6.93;;;;;;;;;;4940270;29;20056;-71
2023/01/25 12:18:55;;;;;;;15.15;7.32;;;;;;;;;;4938393;29;20055;-70
2023/01/25 12:21:32;;;;;;;14.45;7.32;;;;;;;;;;4936459;29;20039;-68
2023/01/25 12:24:11;;;;;;;15.07;7.80;;;;;;;;;;4940912;29;20055;-69
2023/01/25 12:26:43;;;;;;;13.20;7.05;;;;;;;;;;4940788;28;20060;-90
2023/01/25 12:29:19;;;;;;;13.68;6.88;;;;;;;;;;4953631;28;20055;-83
2023/01/25 12:31:45;;;;;;;13.52;6.82;;;;;;;;;;4963699;28;20058;-76
2023/01/25 12:34:17;;;;;;;18.08;6.95;;;;;;;;;;4963324;28;20031;-71
2023/01/25 12:36:44;;;;;;;12.80;5.97;;;;;;;;;;4963462;28;20114;-68
2023/01/25 12:39:13;;;;;;;10.75;6.20;;;;;;;;;;4969024;28;20106;-73
2023/01/25 12:41:39;;;;;;;16.10;6.70;;;;;;;;;;4998703;28;20061;-68
2023/01/25 12:44:05;;;;;;;12.35;6.10;;;;;;;;;;5042599;28;20083;-69
2023/01/25 12:46:34;;;;;;;13.75;6.57;;;;;;;;;;5054434;28;20029;-69
2023/01/25 12:49:04;;;;;;;14.73;7.20;;;;;;;;;;5049218;28;20092;-68
2023/01/25 12:51:34;;;;;;;14.13;6.63;;;;;;;;;;5044193;28;20049;-70
2023/01/25 12:54:00;;;;;;;16.45;8.32;;;;;;;;;;5049953;28;20131;-69
2023/01/25 12:56:26;;;;;;;16.48;8.30;;;;;;;;;;5034254;28;20452;-69
2023/01/25 12:58:55;;;;;;;18.85;8.90;;;;;;;;;;5033774;28;20172;-66
2023/01/25 13:01:29;;;;;;;16.83;8.57;;;;;;;;;;5034059;28;20753;-69
2023/01/25 13:03:58;;;;;;;25.17;11.23;;;;;;;;;;5050112;28;20460;-67
2023/01/25 13:06:40;;;;;;;25.98;12.48;;;;;;;;;;5053549;28;20025;-67
2023/01/25 13:09:13;;;;;;;15.93;8.55;;;;;;;;;;5053630;28;20036;-68
2023/01/25 13:11:41;;;;;;;19.15;8.80;;;;;;;;;;5053542;28;20033;-66
2023/01/25 13:14:16;;;;;;;17.65;8.88;;;;;;;;;;5053548;28;20025;-67
2023/01/25 13:16:47;;;;;;;17.98;8.57;;;;;;;;;;5052667;28;20032;-67
2023/01/25 13:19:22;;;;;;;15.60;8.27;;;;;;;;;;5053553;28;20472;-69
2023/01/25 13:21:49;;;;;;;16.48;8.68;;;;;;;;;;5053848;28;20072;-66
2023/01/25 13:24:18;;;;;;;22.55;10.98;;;;;;;;;;5053582;28;20071;-72
2023/01/25 13:26:57;;;;;;;17.67;8.68;;;;;;;;;;5053083;28;20112;-65
2023/01/25 13:29:35;;;;;;;21.25;9.38;;;;;;;;;;5053042;28;20075;-73
2023/01/25 13:32:04;;;;;;;15.45;7.65;;;;;;;;;;5053352;28;20035;-70
2023/01/25 13:34:37;;;;;;;13.40;7.13;;;;;;;;;;5053040;28;20033;-74
2023/01/25 13:37:20;;;;;;;21.10;8.70;;;;;;;;;;5051773;28;20492;-70
2023/01/25 13:39:49;;;;;;;16.02;8.10;;;;;;;;;;5052838;28;20064;-67
2023/01/25 13:42:20;;;;;;;16.35;7.45;;;;;;;;;;5052248;28;20021;-66
2023/01/25 13:44:47;;;;;;;12.15;5.63;;;;;;;;;;5052427;28;20028;-66
2023/01/25 13:47:15;;;;;;;20.63;9.27;;;;;;;;;;5053147;28;20033;-71
2023/01/25 13:49:43;;;;;;;20.02;9.43;;;;;;;;;;5053048;28;20080;-68
2023/01/25 13:52:17;;;;;;;19.25;9.20;;;;;;;;;;5052495;28;20049;-70
2023/01/25 13:54:47;;;;;;;16.00;8.35;;;;;;;;;;5052729;28;20481;-75
2023/01/25 13:57:14;;;;;;;17.27;8.05;;;;;;;;;;5052782;28;20519;-66
2023/01/25 13:59:40;;;;;;;20.10;9.75;;;;;;;;;;5052421;28;20025;-77
2023/01/25 14:02:32;;;;;;;21.50;9.07;;;;;;;;;;5049404;28;20029;-73
2023/01/25 14:04:59;;;;;;;17.88;8.93;;;;;;;;;;5035430;28;20041;-85
2023/01/25 14:07:31;;;;;;;20.65;9.30;;;;;;;;;;5044606;28;20056;-76
2023/01/25 14:10:00;;;;;;;16.60;8.05;;;;;;;;;;5046652;28;20508;-72
2023/01/25 14:12:31;;;;;;;16.83;8.38;;;;;;;;;;5038169;28;20056;-78
2023/01/25 14:15:09;;;;;;;14.20;7.60;;;;;;;;;;5051572;28;20025;-75
2023/01/25 14:17:35;;;;;;;17.13;8.10;;;;;;;;;;5052460;28;20025;-71
2023/01/25 14:20:01;;;;;;;19.05;9.20;;;;;;;;;;5052634;28;20065;-72
2023/01/25 14:22:31;;;;;;;21.55;9.43;;;;;;;;;;5049195;28;20033;-81
2023/01/25 14:25:06;;;;;;;17.08;8.63;;;;;;;;;;5042362;28;20052;-83
2023/01/25 14:27:33;;;;;;;17.65;8.80;;;;;;;;;;5048853;28;20036;-84
2023/01/25 14:30:00;;;;;;;20.98;9.70;;;;;;;;;;5052251;28;20120;-75
2023/01/25 14:32:27;;;;;;;25.85;10.30;;;;;;;;;;5052277;28;20401;-82
2023/01/25 14:34:53;;;;;;;21.98;9.35;;;;;;;;;;5052288;28;20047;-71
2023/01/25 14:37:21;;;;;;;17.38;8.02;;;;;;;;;;5052138;28;20032;-71
2023/01/25 14:39:47;;;;;;;20.70;9.43;;;;;;;;;;5051901;28;20017;-81